Lexington, Virginia
Current Conditions -  °F | °C
As of 12:35 PM on Friday 24 Oct 2014 (Local Time) from KHSP Reporting Station
Clear Clear  
Wind Chill:   Ceiling: Unl
Heat Index:   Visibility: 10mi
Dew Point:   Wind: 13mph
Humidity: 73%   Direction: 300°WNW
Pressure: 30.05"   Gusts: 18mph
Location:  37.79°N, 79.44°W
Report Text: KHSP 241635Z AUTO 30011G16KT 10SM CLR 09/04 A3005 RMK AO2 T00860040
Loading
Personal Weather Stations






























Interactive Weather Map
Tropical Storm Tracking
New forecast layout! Learn more

10-Day Weather Forecast

Advertisements
Track Severe Weather on mobile